Adventure of The Seas — C6SA3 — position and weather

sailwx.info

Track history (hours):
 
Tides and Currents Weather Stations Pressure Air Temp Water Temp Dewpoint Dewpoint Depression Visibility Wind Speed Wind Dir Waves Ship Positions

Adventure of The Seas

Operator: Royal Caribbean Cruises Ltd

Last reported at 2017-Jul-22 12:03 UTC. Time now 2017-Jul-22 12:40 UTC.
Position N 18°28' W 066°06'.

Type: Passenger vessel. MMSI: 311263000.

Date/timePositionNaut miles runAvg speedWind from/ knotsBaromVisibWave heightAir tempDewpointWater temp
2017-Jul-22 12:03N 18°28' W 066°06'0 0.0
2017-Jul-22 09:40N 18°28' W 066°06'0 1.1
2017-Jul-22 09:30N 18°28' W 066°06'2 3.3
2017-Jul-22 09:00N 18°29' W 066°08'  
2017-Jul-19 02:14N 16°11' W 062°05'314.3
2017-Jul-19 02:00N 16°14' W 062°05'714.2
2017-Jul-19 01:31N 16°21' W 062°06'713.9
2017-Jul-19 01:00N 16°28' W 062°05'714.1
2017-Jul-19 00:30N 16°35' W 062°04'714.1
2017-Jul-19 00:00N 16°42' W 062°03'714.0
2017-Jul-18 23:30N 16°49' W 062°03'713.8
2017-Jul-18 23:00N 16°56' W 062°02'714.2
2017-Jul-18 22:30N 17°03' W 062°01'611.6
2017-Jul-18 22:01N 17°08' W 061°59'510.9
2017-Jul-18 21:31N 17°08' W 061°53'2 4.9
2017-Jul-18 21:01N 17°07' W 061°51'0 0.1
2017-Jul-18 20:28N 17°07' W 061°51'0 0.0
2017-Jul-18 19:58N 17°07' W 061°51'0 0.0
2017-Jul-18 19:28N 17°07' W 061°51'0 0.0
2017-Jul-18 18:58N 17°07' W 061°51'0 0.0
2017-Jul-18 18:28N 17°07' W 061°51'0 0.0
2017-Jul-18 17:58N 17°07' W 061°51'0 0.0
2017-Jul-18 17:28N 17°07' W 061°51'0 0.0
2017-Jul-18 16:58N 17°07' W 061°51'0 0.0
2017-Jul-18 16:28N 17°07' W 061°51'0 0.0
2017-Jul-18 15:58N 17°07' W 061°51'0 0.0
2017-Jul-18 15:28N 17°07' W 061°51'0 0.0
2017-Jul-18 14:58N 17°07' W 061°51'0 0.0
2017-Jul-18 13:58N 17°07' W 061°51'0 0.0
2017-Jul-18 13:28N 17°07' W 061°51'0 0.0
2017-Jul-18 12:58N 17°07' W 061°51'0 0.0
2017-Jul-18 12:28N 17°07' W 061°51'0 0.0
2017-Jul-18 11:58N 17°07' W 061°51'1 2.8
2017-Jul-18 11:30N 17°08' W 061°52'4 7.9
2017-Jul-18 11:00N 17°09' W 061°56'5 9.9
2017-Jul-18 10:30N 17°11' W 062°01'5 9.5
2017-Jul-18 10:00N 17°14' W 062°05'5 9.4
2017-Jul-18 09:30N 17°16' W 062°09'5 9.7
2017-Jul-18 09:00N 17°18' W 062°14'5 9.9
2017-Jul-18 08:30N 17°21' W 062°18'5 9.7
2017-Jul-18 08:00N 17°23' W 062°23'5 9.8
2017-Jul-18 07:30N 17°27' W 062°26'5 9.9
2017-Jul-18 07:00N 17°30' W 062°30'510.2
2017-Jul-18 06:30N 17°34' W 062°33'610.2
2017-Jul-18 05:54N 17°37' W 062°39'29 1.0
2017-Jul-17 00:02N 17°51' W 063°07'0 5.0
2017-Jul-17 00:00N 17°51' W 063°07'2 4.4
2017-Jul-16 23:30N 17°53' W 063°06'2 4.3
2017-Jul-16 23:00N 17°55' W 063°06'2 4.2
2017-Jul-16 22:29N 17°57' W 063°06'2 3.9
2017-Jul-16 21:55N 17°59' W 063°06'2 5.1
2017-Jul-16 21:30N 18°00' W 063°04'1 0.1
2017-Jul-16 11:28N 18°00' W 063°03'610.9
2017-Jul-16 10:57N 18°00' W 063°09'714.9
2017-Jul-16 10:30N 18°01' W 063°16'815.6
2017-Jul-16 10:00N 18°02' W 063°24'917.5
2017-Jul-16 09:30N 18°03' W 063°33'917.9
2017-Jul-16 09:00N 18°04' W 063°42'6219.0
2017-Jul-16 05:44N 18°12' W 064°47'7617.9
2017-Jul-16 01:30N 18°34' W 066°03'713.2
2017-Jul-16 01:00N 18°29' W 066°08'2 3.4
2017-Jul-16 00:23N 18°28' W 066°06'0 0.0
2017-Jul-15 23:50N 18°28' W 066°06'0 0.0
2017-Jul-15 23:20N 18°28' W 066°06'0 0.0
2017-Jul-15 22:50N 18°28' W 066°06'0 0.0
2017-Jul-15 22:29N 18°28' W 066°06'0 0.0
2017-Jul-15 21:53N 18°28' W 066°06'0 0.0
2017-Jul-15 21:26N 18°28' W 066°06'0 0.0
2017-Jul-15 20:53N 18°28' W 066°06'0 0.0
2017-Jul-15 19:17N 18°28' W 066°06'0 0.0
2017-Jul-15 18:47N 18°28' W 066°06'0 0.0
2017-Jul-15 18:05N 18°28' W 066°06'0 0.0
2017-Jul-15 17:23N 18°28' W 066°06'0 0.0
2017-Jul-15 16:53N 18°28' W 066°06'0 0.0
2017-Jul-15 16:23N 18°28' W 066°06'0 0.0
2017-Jul-15 15:35N 18°28' W 066°06'0 0.0
2017-Jul-15 15:29N 18°28' W 066°06'0 0.0
2017-Jul-15 14:59N 18°28' W 066°06'69 6.1
2017-Jul-15 03:39N 18°13' W 064°55'215.5
2017-Jul-15 03:30N 18°12' W 064°52'7115.8
2017-Jul-14 23:01N 18°04' W 063°38'117.0
2017-Jul-14 22:58N 18°04' W 063°37'919.1
2017-Jul-14 22:30N 18°03' W 063°28'919.2
2017-Jul-14 22:00N 18°02' W 063°18'1019.3
2017-Jul-14 21:30N 18°00' W 063°08'5 0.4
2017-Jul-14 09:24N 18°00' W 063°03'3 7.7
2017-Jul-14 08:59N 17°60' W 063°07'613.5
2017-Jul-14 08:30N 17°57' W 063°13'714.8
2017-Jul-14 08:00N 17°54' W 063°20'816.0
2017-Jul-14 07:30N 17°51' W 063°28'  
Track history (hours):
 
Tides and Currents Weather Stations Pressure Air Temp Water Temp Dewpoint Dewpoint Depression Visibility Wind Speed Wind Dir Waves Ship Positions

Adventure of The Seas

Operator: Royal Caribbean Cruises Ltd

Last reported at 2017-Jul-22 12:03 UTC. Time now 2017-Jul-22 12:40 UTC.
Position N 18°28' W 066°06'.

Type: Passenger vessel. MMSI: 311263000.

Date/timePositionNaut miles runAvg speedWind from/ knotsBaromVisibWave heightAir tempDewpointWater temp
2017-Jul-22 12:03N 18°28' W 066°06'0 0.0
2017-Jul-22 09:40N 18°28' W 066°06'0 1.1
2017-Jul-22 09:30N 18°28' W 066°06'2 3.3
2017-Jul-22 09:00N 18°29' W 066°08'  
2017-Jul-19 02:14N 16°11' W 062°05'314.3
2017-Jul-19 02:00N 16°14' W 062°05'714.2
2017-Jul-19 01:31N 16°21' W 062°06'713.9
2017-Jul-19 01:00N 16°28' W 062°05'714.1
2017-Jul-19 00:30N 16°35' W 062°04'714.1
2017-Jul-19 00:00N 16°42' W 062°03'714.0
2017-Jul-18 23:30N 16°49' W 062°03'713.8
2017-Jul-18 23:00N 16°56' W 062°02'714.2
2017-Jul-18 22:30N 17°03' W 062°01'611.6
2017-Jul-18 22:01N 17°08' W 061°59'510.9
2017-Jul-18 21:31N 17°08' W 061°53'2 4.9
2017-Jul-18 21:01N 17°07' W 061°51'0 0.1
2017-Jul-18 20:28N 17°07' W 061°51'0 0.0
2017-Jul-18 19:58N 17°07' W 061°51'0 0.0
2017-Jul-18 19:28N 17°07' W 061°51'0 0.0
2017-Jul-18 18:58N 17°07' W 061°51'0 0.0
2017-Jul-18 18:28N 17°07' W 061°51'0 0.0
2017-Jul-18 17:58N 17°07' W 061°51'0 0.0
2017-Jul-18 17:28N 17°07' W 061°51'0 0.0
2017-Jul-18 16:58N 17°07' W 061°51'0 0.0
2017-Jul-18 16:28N 17°07' W 061°51'0 0.0
2017-Jul-18 15:58N 17°07' W 061°51'0 0.0
2017-Jul-18 15:28N 17°07' W 061°51'0 0.0
2017-Jul-18 14:58N 17°07' W 061°51'0 0.0
2017-Jul-18 13:58N 17°07' W 061°51'0 0.0
2017-Jul-18 13:28N 17°07' W 061°51'0 0.0
2017-Jul-18 12:58N 17°07' W 061°51'0 0.0
2017-Jul-18 12:28N 17°07' W 061°51'0 0.0
2017-Jul-18 11:58N 17°07' W 061°51'1 2.8
2017-Jul-18 11:30N 17°08' W 061°52'4 7.9
2017-Jul-18 11:00N 17°09' W 061°56'5 9.9
2017-Jul-18 10:30N 17°11' W 062°01'5 9.5
2017-Jul-18 10:00N 17°14' W 062°05'5 9.4
2017-Jul-18 09:30N 17°16' W 062°09'5 9.7
2017-Jul-18 09:00N 17°18' W 062°14'5 9.9
2017-Jul-18 08:30N 17°21' W 062°18'5 9.7
2017-Jul-18 08:00N 17°23' W 062°23'5 9.8
2017-Jul-18 07:30N 17°27' W 062°26'5 9.9
2017-Jul-18 07:00N 17°30' W 062°30'510.2
2017-Jul-18 06:30N 17°34' W 062°33'610.2
2017-Jul-18 05:54N 17°37' W 062°39'29 1.0
2017-Jul-17 00:02N 17°51' W 063°07'0 5.0
2017-Jul-17 00:00N 17°51' W 063°07'2 4.4
2017-Jul-16 23:30N 17°53' W 063°06'2 4.3
2017-Jul-16 23:00N 17°55' W 063°06'2 4.2
2017-Jul-16 22:29N 17°57' W 063°06'2 3.9
2017-Jul-16 21:55N 17°59' W 063°06'2 5.1
2017-Jul-16 21:30N 18°00' W 063°04'1 0.1
2017-Jul-16 11:28N 18°00' W 063°03'610.9
2017-Jul-16 10:57N 18°00' W 063°09'714.9
2017-Jul-16 10:30N 18°01' W 063°16'815.6
2017-Jul-16 10:00N 18°02' W 063°24'917.5
2017-Jul-16 09:30N 18°03' W 063°33'917.9
2017-Jul-16 09:00N 18°04' W 063°42'6219.0
2017-Jul-16 05:44N 18°12' W 064°47'7617.9
2017-Jul-16 01:30N 18°34' W 066°03'713.2
2017-Jul-16 01:00N 18°29' W 066°08'2 3.4
2017-Jul-16 00:23N 18°28' W 066°06'0 0.0
2017-Jul-15 23:50N 18°28' W 066°06'0 0.0
2017-Jul-15 23:20N 18°28' W 066°06'0 0.0
2017-Jul-15 22:50N 18°28' W 066°06'0 0.0
2017-Jul-15 22:29N 18°28' W 066°06'0 0.0
2017-Jul-15 21:53N 18°28' W 066°06'0 0.0
2017-Jul-15 21:26N 18°28' W 066°06'0 0.0
2017-Jul-15 20:53N 18°28' W 066°06'0 0.0
2017-Jul-15 19:17N 18°28' W 066°06'0 0.0
2017-Jul-15 18:47N 18°28' W 066°06'0 0.0
2017-Jul-15 18:05N 18°28' W 066°06'0 0.0
2017-Jul-15 17:23N 18°28' W 066°06'0 0.0
2017-Jul-15 16:53N 18°28' W 066°06'0 0.0
2017-Jul-15 16:23N 18°28' W 066°06'0 0.0
2017-Jul-15 15:35N 18°28' W 066°06'0 0.0
2017-Jul-15 15:29N 18°28' W 066°06'0 0.0
2017-Jul-15 14:59N 18°28' W 066°06'69 6.1
2017-Jul-15 03:39N 18°13' W 064°55'215.5
2017-Jul-15 03:30N 18°12' W 064°52'7115.8
2017-Jul-14 23:01N 18°04' W 063°38'117.0
2017-Jul-14 22:58N 18°04' W 063°37'919.1
2017-Jul-14 22:30N 18°03' W 063°28'919.2
2017-Jul-14 22:00N 18°02' W 063°18'1019.3
2017-Jul-14 21:30N 18°00' W 063°08'5 0.4
2017-Jul-14 09:24N 18°00' W 063°03'3 7.7
2017-Jul-14 08:59N 17°60' W 063°07'613.5
2017-Jul-14 08:30N 17°57' W 063°13'714.8
2017-Jul-14 08:00N 17°54' W 063°20'816.0
2017-Jul-14 07:30N 17°51' W 063°28'  

Dump ship's entire track history